sensor_id;sensor_type;location;lat;lon;timestamp;P1;durP1;ratioP1;P2;durP2;ratioP2
75700;SDS011;64321;48.796;44.740;2022-11-20T00:04:23;27.48;;;11.95;;
75700;SDS011;64321;48.796;44.740;2022-11-20T00:09:26;24.42;;;11.50;;
75700;SDS011;64321;48.796;44.740;2022-11-20T00:14:28;23.63;;;11.13;;
75700;SDS011;64321;48.796;44.740;2022-11-20T00:19:31;24.63;;;10.93;;
75700;SDS011;64321;48.796;44.740;2022-11-20T00:24:33;21.50;;;9.95;;
75700;SDS011;64321;48.796;44.740;2022-11-20T00:29:43;25.75;;;11.07;;
75700;SDS011;64321;48.796;44.740;2022-11-20T00:34:45;26.13;;;12.52;;
75700;SDS011;64321;48.796;44.740;2022-11-20T00:39:48;27.48;;;11.30;;
75700;SDS011;64321;48.796;44.740;2022-11-20T00:44:51;24.73;;;11.27;;
75700;SDS011;64321;48.796;44.740;2022-11-20T00:49:53;25.23;;;11.23;;
75700;SDS011;64321;48.796;44.740;2022-11-20T00:54:56;22.05;;;11.27;;
75700;SDS011;64321;48.796;44.740;2022-11-20T00:59:58;30.92;;;13.90;;
75700;SDS011;64321;48.796;44.740;2022-11-20T01:05:01;30.10;;;12.80;;
75700;SDS011;64321;48.796;44.740;2022-11-20T01:10:04;27.10;;;14.70;;
75700;SDS011;64321;48.796;44.740;2022-11-20T01:15:07;29.17;;;14.13;;
75700;SDS011;64321;48.796;44.740;2022-11-20T01:20:10;33.78;;;15.75;;
75700;SDS011;64321;48.796;44.740;2022-11-20T01:25:13;33.45;;;14.88;;
75700;SDS011;64321;48.796;44.740;2022-11-20T01:30:15;27.75;;;14.68;;
75700;SDS011;64321;48.796;44.740;2022-11-20T01:35:18;29.20;;;14.48;;
75700;SDS011;64321;48.796;44.740;2022-11-20T01:40:20;27.33;;;12.98;;
75700;SDS011;64321;48.796;44.740;2022-11-20T01:46:24;29.42;;;13.63;;
75700;SDS011;64321;48.796;44.740;2022-11-20T01:52:00;24.25;;;11.48;;
75700;SDS011;64321;48.796;44.740;2022-11-20T01:56:37;24.27;;;12.05;;
75700;SDS011;64321;48.796;44.740;2022-11-20T02:01:43;27.05;;;13.55;;
75700;SDS011;64321;48.796;44.740;2022-11-20T02:06:51;25.17;;;12.50;;
75700;SDS011;64321;48.796;44.740;2022-11-20T02:12:01;25.30;;;12.90;;
75700;SDS011;64321;48.796;44.740;2022-11-20T02:17:05;17.52;;;9.45;;
75700;SDS011;64321;48.796;44.740;2022-11-20T02:22:09;19.83;;;10.50;;
75700;SDS011;64321;48.796;44.740;2022-11-20T02:27:37;22.13;;;11.30;;
75700;SDS011;64321;48.796;44.740;2022-11-20T02:32:40;20.38;;;11.25;;
75700;SDS011;64321;48.796;44.740;2022-11-20T02:37:43;22.13;;;11.35;;
75700;SDS011;64321;48.796;44.740;2022-11-20T02:42:46;21.23;;;11.63;;
75700;SDS011;64321;48.796;44.740;2022-11-20T02:47:49;17.95;;;9.20;;
75700;SDS011;64321;48.796;44.740;2022-11-20T02:52:52;17.15;;;8.77;;
75700;SDS011;64321;48.796;44.740;2022-11-20T02:57:54;17.17;;;8.82;;
75700;SDS011;64321;48.796;44.740;2022-11-20T03:02:57;13.32;;;7.25;;
75700;SDS011;64321;48.796;44.740;2022-11-20T03:08:00;11.23;;;6.05;;
75700;SDS011;64321;48.796;44.740;2022-11-20T03:13:02;15.65;;;6.88;;
75700;SDS011;64321;48.796;44.740;2022-11-20T03:18:05;13.20;;;6.35;;
75700;SDS011;64321;48.796;44.740;2022-11-20T03:23:07;9.52;;;5.28;;
75700;SDS011;64321;48.796;44.740;2022-11-20T03:28:10;7.88;;;4.55;;
75700;SDS011;64321;48.796;44.740;2022-11-20T03:33:13;4.22;;;2.30;;
75700;SDS011;64321;48.796;44.740;2022-11-20T03:38:15;4.55;;;2.20;;
75700;SDS011;64321;48.796;44.740;2022-11-20T03:43:17;4.05;;;2.10;;
75700;SDS011;64321;48.796;44.740;2022-11-20T03:48:21;3.70;;;1.52;;
75700;SDS011;64321;48.796;44.740;2022-11-20T03:53:25;4.25;;;1.52;;
75700;SDS011;64321;48.796;44.740;2022-11-20T03:58:27;3.55;;;1.90;;
75700;SDS011;64321;48.796;44.740;2022-11-20T04:03:30;3.40;;;1.60;;
75700;SDS011;64321;48.796;44.740;2022-11-20T04:08:32;2.97;;;1.83;;
75700;SDS011;64321;48.796;44.740;2022-11-20T04:13:36;3.70;;;1.60;;
75700;SDS011;64321;48.796;44.740;2022-11-20T04:18:39;2.90;;;1.20;;
75700;SDS011;64321;48.796;44.740;2022-11-20T04:23:41;3.92;;;1.60;;
75700;SDS011;64321;48.796;44.740;2022-11-20T04:28:44;3.70;;;1.75;;
75700;SDS011;64321;48.796;44.740;2022-11-20T04:33:46;3.10;;;1.45;;
75700;SDS011;64321;48.796;44.740;2022-11-20T04:38:53;3.90;;;1.90;;
75700;SDS011;64321;48.796;44.740;2022-11-20T04:43:58;3.38;;;1.60;;
75700;SDS011;64321;48.796;44.740;2022-11-20T04:49:05;3.58;;;1.50;;
75700;SDS011;64321;48.796;44.740;2022-11-20T04:54:09;4.53;;;2.28;;
75700;SDS011;64321;48.796;44.740;2022-11-20T04:59:13;5.00;;;2.38;;
75700;SDS011;64321;48.796;44.740;2022-11-20T05:04:16;5.65;;;2.78;;
75700;SDS011;64321;48.796;44.740;2022-11-20T05:09:18;5.72;;;2.53;;
75700;SDS011;64321;48.796;44.740;2022-11-20T05:14:21;5.25;;;2.50;;
75700;SDS011;64321;48.796;44.740;2022-11-20T05:19:24;5.28;;;2.65;;
75700;SDS011;64321;48.796;44.740;2022-11-20T05:24:27;7.75;;;3.10;;
75700;SDS011;64321;48.796;44.740;2022-11-20T05:29:29;5.93;;;3.10;;
75700;SDS011;64321;48.796;44.740;2022-11-20T05:34:31;4.57;;;2.03;;
75700;SDS011;64321;48.796;44.740;2022-11-20T05:39:34;4.30;;;2.03;;
75700;SDS011;64321;48.796;44.740;2022-11-20T05:44:37;4.85;;;1.98;;
75700;SDS011;64321;48.796;44.740;2022-11-20T05:49:39;3.60;;;2.15;;
75700;SDS011;64321;48.796;44.740;2022-11-20T05:54:42;4.88;;;2.30;;
75700;SDS011;64321;48.796;44.740;2022-11-20T05:59:44;5.72;;;2.05;;
75700;SDS011;64321;48.796;44.740;2022-11-20T06:04:47;3.72;;;1.58;;
75700;SDS011;64321;48.796;44.740;2022-11-20T06:09:49;4.40;;;1.52;;
75700;SDS011;64321;48.796;44.740;2022-11-20T06:14:52;3.65;;;1.58;;
75700;SDS011;64321;48.796;44.740;2022-11-20T06:19:54;3.78;;;1.60;;
75700;SDS011;64321;48.796;44.740;2022-11-20T06:24:57;6.53;;;2.25;;
75700;SDS011;64321;48.796;44.740;2022-11-20T06:29:59;4.05;;;1.73;;
75700;SDS011;64321;48.796;44.740;2022-11-20T06:35:04;4.70;;;1.70;;
75700;SDS011;64321;48.796;44.740;2022-11-20T06:40:07;4.55;;;2.20;;
75700;SDS011;64321;48.796;44.740;2022-11-20T06:45:10;6.70;;;3.00;;
75700;SDS011;64321;48.796;44.740;2022-11-20T06:50:13;6.88;;;2.83;;
75700;SDS011;64321;48.796;44.740;2022-11-20T06:55:15;6.80;;;3.42;;
75700;SDS011;64321;48.796;44.740;2022-11-20T07:00:18;8.50;;;3.28;;
75700;SDS011;64321;48.796;44.740;2022-11-20T07:05:20;3.00;;;1.27;;
75700;SDS011;64321;48.796;44.740;2022-11-20T07:10:23;2.53;;;0.90;;
75700;SDS011;64321;48.796;44.740;2022-11-20T07:15:26;3.22;;;1.02;;
75700;SDS011;64321;48.796;44.740;2022-11-20T07:20:29;3.78;;;1.63;;
75700;SDS011;64321;48.796;44.740;2022-11-20T07:25:31;3.45;;;1.63;;
75700;SDS011;64321;48.796;44.740;2022-11-20T07:30:34;4.10;;;1.92;;
75700;SDS011;64321;48.796;44.740;2022-11-20T07:35:37;3.83;;;1.70;;
75700;SDS011;64321;48.796;44.740;2022-11-20T07:40:40;4.28;;;2.28;;
75700;SDS011;64321;48.796;44.740;2022-11-20T07:45:43;4.70;;;2.22;;
75700;SDS011;64321;48.796;44.740;2022-11-20T07:50:45;4.38;;;1.70;;
75700;SDS011;64321;48.796;44.740;2022-11-20T07:55:48;5.00;;;2.90;;
75700;SDS011;64321;48.796;44.740;2022-11-20T08:00:50;4.65;;;2.28;;
75700;SDS011;64321;48.796;44.740;2022-11-20T08:05:53;4.00;;;2.00;;
75700;SDS011;64321;48.796;44.740;2022-11-20T08:10:58;4.53;;;1.90;;
75700;SDS011;64321;48.796;44.740;2022-11-20T08:16:20;4.03;;;1.85;;
75700;SDS011;64321;48.796;44.740;2022-11-20T08:21:23;4.57;;;2.33;;
75700;SDS011;64321;48.796;44.740;2022-11-20T08:26:26;6.45;;;3.05;;
75700;SDS011;64321;48.796;44.740;2022-11-20T08:31:29;6.68;;;3.53;;
75700;SDS011;64321;48.796;44.740;2022-11-20T08:36:33;6.20;;;3.05;;
75700;SDS011;64321;48.796;44.740;2022-11-20T08:41:36;7.07;;;3.63;;
75700;SDS011;64321;48.796;44.740;2022-11-20T08:46:40;6.32;;;3.53;;
75700;SDS011;64321;48.796;44.740;2022-11-20T08:51:43;7.28;;;3.83;;
75700;SDS011;64321;48.796;44.740;2022-11-20T08:56:47;7.60;;;3.85;;
75700;SDS011;64321;48.796;44.740;2022-11-20T09:01:49;8.27;;;4.28;;
75700;SDS011;64321;48.796;44.740;2022-11-20T09:06:52;8.65;;;4.20;;
75700;SDS011;64321;48.796;44.740;2022-11-20T09:11:55;7.15;;;3.83;;
75700;SDS011;64321;48.796;44.740;2022-11-20T09:16:57;7.85;;;4.00;;
75700;SDS011;64321;48.796;44.740;2022-11-20T09:22:00;8.75;;;4.20;;
75700;SDS011;64321;48.796;44.740;2022-11-20T09:27:11;8.77;;;4.57;;
75700;SDS011;64321;48.796;44.740;2022-11-20T09:32:13;11.02;;;5.88;;
75700;SDS011;64321;48.796;44.740;2022-11-20T09:37:16;7.50;;;3.35;;
75700;SDS011;64321;48.796;44.740;2022-11-20T09:47:47;6.10;;;3.17;;
75700;SDS011;64321;48.796;44.740;2022-11-20T09:53:01;7.35;;;3.60;;
75700;SDS011;64321;48.796;44.740;2022-11-20T09:58:32;9.27;;;2.95;;
75700;SDS011;64321;48.796;44.740;2022-11-20T10:14:26;8.85;;;3.90;;
75700;SDS011;64321;48.796;44.740;2022-11-20T10:24:57;6.57;;;2.97;;
75700;SDS011;64321;48.796;44.740;2022-11-20T10:30:15;7.45;;;3.85;;
75700;SDS011;64321;48.796;44.740;2022-11-20T10:40:56;6.82;;;3.40;;
75700;SDS011;64321;48.796;44.740;2022-11-20T10:46:22;7.75;;;4.30;;
75700;SDS011;64321;48.796;44.740;2022-11-20T11:01:51;6.13;;;2.70;;
75700;SDS011;64321;48.796;44.740;2022-11-20T11:06:54;5.85;;;2.97;;
75700;SDS011;64321;48.796;44.740;2022-11-20T11:12:08;9.73;;;3.75;;
75700;SDS011;64321;48.796;44.740;2022-11-20T11:17:19;7.25;;;3.58;;
75700;SDS011;64321;48.796;44.740;2022-11-20T11:22:43;7.45;;;3.55;;
75700;SDS011;64321;48.796;44.740;2022-11-20T11:27:51;5.00;;;2.55;;
75700;SDS011;64321;48.796;44.740;2022-11-20T11:33:04;8.52;;;3.67;;
75700;SDS011;64321;48.796;44.740;2022-11-20T11:38:12;7.43;;;3.47;;
75700;SDS011;64321;48.796;44.740;2022-11-20T11:43:23;7.68;;;4.07;;
75700;SDS011;64321;48.796;44.740;2022-11-20T11:48:57;11.15;;;4.95;;
75700;SDS011;64321;48.796;44.740;2022-11-20T11:54:05;9.32;;;4.72;;
75700;SDS011;64321;48.796;44.740;2022-11-20T12:04:50;6.75;;;3.53;;
75700;SDS011;64321;48.796;44.740;2022-11-20T12:09:59;9.45;;;5.13;;
75700;SDS011;64321;48.796;44.740;2022-11-20T12:15:04;9.43;;;4.85;;
75700;SDS011;64321;48.796;44.740;2022-11-20T12:20:13;9.63;;;5.10;;
75700;SDS011;64321;48.796;44.740;2022-11-20T12:25:18;9.98;;;4.72;;
75700;SDS011;64321;48.796;44.740;2022-11-20T12:30:31;9.55;;;4.32;;
75700;SDS011;64321;48.796;44.740;2022-11-20T12:46:06;7.40;;;4.18;;
75700;SDS011;64321;48.796;44.740;2022-11-20T12:57:01;11.40;;;5.43;;
75700;SDS011;64321;48.796;44.740;2022-11-20T13:07:39;8.07;;;4.28;;
75700;SDS011;64321;48.796;44.740;2022-11-20T13:12:45;8.68;;;4.60;;
75700;SDS011;64321;48.796;44.740;2022-11-20T13:17:52;10.10;;;5.30;;
75700;SDS011;64321;48.796;44.740;2022-11-20T13:22:59;10.25;;;5.22;;
75700;SDS011;64321;48.796;44.740;2022-11-20T13:33:31;10.00;;;5.30;;
75700;SDS011;64321;48.796;44.740;2022-11-20T13:38:51;11.55;;;5.53;;
75700;SDS011;64321;48.796;44.740;2022-11-20T13:44:14;8.85;;;4.88;;
75700;SDS011;64321;48.796;44.740;2022-11-20T13:54:52;9.10;;;4.60;;
75700;SDS011;64321;48.796;44.740;2022-11-20T14:00:22;10.63;;;4.85;;
75700;SDS011;64321;48.796;44.740;2022-11-20T14:05:27;10.18;;;5.60;;
75700;SDS011;64321;48.796;44.740;2022-11-20T14:10:33;12.07;;;5.97;;
75700;SDS011;64321;48.796;44.740;2022-11-20T14:15:35;13.45;;;5.22;;
75700;SDS011;64321;48.796;44.740;2022-11-20T14:20:45;13.48;;;5.80;;
75700;SDS011;64321;48.796;44.740;2022-11-20T14:25:48;10.07;;;5.38;;
75700;SDS011;64321;48.796;44.740;2022-11-20T14:30:51;10.45;;;5.15;;
75700;SDS011;64321;48.796;44.740;2022-11-20T14:35:57;8.50;;;4.68;;
75700;SDS011;64321;48.796;44.740;2022-11-20T14:41:16;7.20;;;3.83;;
75700;SDS011;64321;48.796;44.740;2022-11-20T14:46:20;9.32;;;4.43;;
75700;SDS011;64321;48.796;44.740;2022-11-20T14:51:31;7.47;;;3.85;;
75700;SDS011;64321;48.796;44.740;2022-11-20T14:56:59;7.72;;;3.97;;
75700;SDS011;64321;48.796;44.740;2022-11-20T15:02:05;9.07;;;3.40;;
75700;SDS011;64321;48.796;44.740;2022-11-20T15:07:11;6.65;;;3.10;;
75700;SDS011;64321;48.796;44.740;2022-11-20T15:12:16;7.15;;;3.30;;
75700;SDS011;64321;48.796;44.740;2022-11-20T15:17:20;7.53;;;3.13;;
75700;SDS011;64321;48.796;44.740;2022-11-20T15:22:22;6.68;;;3.53;;
75700;SDS011;64321;48.796;44.740;2022-11-20T15:27:25;6.95;;;3.58;;
75700;SDS011;64321;48.796;44.740;2022-11-20T15:32:27;9.73;;;3.88;;
75700;SDS011;64321;48.796;44.740;2022-11-20T15:37:30;7.43;;;3.83;;
75700;SDS011;64321;48.796;44.740;2022-11-20T15:42:55;7.97;;;4.00;;
75700;SDS011;64321;48.796;44.740;2022-11-20T15:48:15;8.57;;;4.15;;
75700;SDS011;64321;48.796;44.740;2022-11-20T15:58:23;9.35;;;4.47;;
75700;SDS011;64321;48.796;44.740;2022-11-20T16:03:26;9.93;;;5.25;;
75700;SDS011;64321;48.796;44.740;2022-11-20T16:08:29;9.75;;;5.32;;
75700;SDS011;64321;48.796;44.740;2022-11-20T16:13:31;14.40;;;6.20;;
75700;SDS011;64321;48.796;44.740;2022-11-20T16:18:52;11.35;;;5.97;;
75700;SDS011;64321;48.796;44.740;2022-11-20T16:23:56;10.38;;;5.57;;
75700;SDS011;64321;48.796;44.740;2022-11-20T16:29:06;10.85;;;6.30;;
75700;SDS011;64321;48.796;44.740;2022-11-20T16:34:09;10.60;;;5.60;;
75700;SDS011;64321;48.796;44.740;2022-11-20T16:39:24;13.57;;;6.97;;
75700;SDS011;64321;48.796;44.740;2022-11-20T16:44:27;13.35;;;6.57;;
75700;SDS011;64321;48.796;44.740;2022-11-20T16:49:29;12.95;;;6.40;;
75700;SDS011;64321;48.796;44.740;2022-11-20T16:54:34;15.07;;;7.95;;
75700;SDS011;64321;48.796;44.740;2022-11-20T16:59:36;16.35;;;7.65;;
75700;SDS011;64321;48.796;44.740;2022-11-20T17:04:39;19.52;;;7.57;;
75700;SDS011;64321;48.796;44.740;2022-11-20T17:09:42;23.05;;;8.20;;
75700;SDS011;64321;48.796;44.740;2022-11-20T17:14:45;22.08;;;7.45;;
75700;SDS011;64321;48.796;44.740;2022-11-20T17:19:47;21.52;;;8.73;;
75700;SDS011;64321;48.796;44.740;2022-11-20T17:24:53;18.08;;;7.30;;
75700;SDS011;64321;48.796;44.740;2022-11-20T17:29:55;14.38;;;7.38;;
75700;SDS011;64321;48.796;44.740;2022-11-20T17:35:00;14.27;;;7.32;;
75700;SDS011;64321;48.796;44.740;2022-11-20T17:40:03;19.13;;;7.78;;
75700;SDS011;64321;48.796;44.740;2022-11-20T17:45:06;14.55;;;7.57;;
75700;SDS011;64321;48.796;44.740;2022-11-20T17:50:09;14.93;;;7.70;;
75700;SDS011;64321;48.796;44.740;2022-11-20T17:55:12;14.85;;;7.15;;
75700;SDS011;64321;48.796;44.740;2022-11-20T18:00:14;13.07;;;6.47;;
75700;SDS011;64321;48.796;44.740;2022-11-20T18:05:18;12.45;;;6.50;;
75700;SDS011;64321;48.796;44.740;2022-11-20T18:10:21;16.80;;;7.57;;
75700;SDS011;64321;48.796;44.740;2022-11-20T18:15:24;14.05;;;6.50;;
75700;SDS011;64321;48.796;44.740;2022-11-20T18:20:27;18.25;;;7.15;;
75700;SDS011;64321;48.796;44.740;2022-11-20T18:25:34;13.98;;;5.88;;
75700;SDS011;64321;48.796;44.740;2022-11-20T18:30:37;9.48;;;4.72;;
75700;SDS011;64321;48.796;44.740;2022-11-20T18:35:39;15.30;;;5.50;;
75700;SDS011;64321;48.796;44.740;2022-11-20T18:40:44;10.57;;;5.43;;
75700;SDS011;64321;48.796;44.740;2022-11-20T18:45:46;12.07;;;5.63;;
75700;SDS011;64321;48.796;44.740;2022-11-20T18:50:48;12.32;;;5.82;;
75700;SDS011;64321;48.796;44.740;2022-11-20T18:55:51;9.82;;;5.22;;
75700;SDS011;64321;48.796;44.740;2022-11-20T19:00:54;13.85;;;5.55;;
75700;SDS011;64321;48.796;44.740;2022-11-20T19:05:56;14.15;;;7.20;;
75700;SDS011;64321;48.796;44.740;2022-11-20T19:11:05;13.68;;;6.03;;
75700;SDS011;64321;48.796;44.740;2022-11-20T19:16:13;23.02;;;7.57;;
75700;SDS011;64321;48.796;44.740;2022-11-20T19:21:18;17.42;;;7.53;;
75700;SDS011;64321;48.796;44.740;2022-11-20T19:26:23;14.25;;;7.15;;
75700;SDS011;64321;48.796;44.740;2022-11-20T19:31:27;15.88;;;8.75;;
75700;SDS011;64321;48.796;44.740;2022-11-20T19:36:31;15.43;;;7.50;;
75700;SDS011;64321;48.796;44.740;2022-11-20T19:41:36;13.82;;;6.72;;
75700;SDS011;64321;48.796;44.740;2022-11-20T19:46:40;14.13;;;7.13;;
75700;SDS011;64321;48.796;44.740;2022-11-20T19:51:44;13.18;;;6.90;;
75700;SDS011;64321;48.796;44.740;2022-11-20T19:56:48;13.10;;;6.72;;
75700;SDS011;64321;48.796;44.740;2022-11-20T20:01:51;17.50;;;8.18;;
75700;SDS011;64321;48.796;44.740;2022-11-20T20:06:54;20.02;;;8.07;;
75700;SDS011;64321;48.796;44.740;2022-11-20T20:11:57;15.68;;;7.78;;
75700;SDS011;64321;48.796;44.740;2022-11-20T20:16:59;15.45;;;7.22;;
75700;SDS011;64321;48.796;44.740;2022-11-20T20:22:02;15.73;;;7.25;;
75700;SDS011;64321;48.796;44.740;2022-11-20T20:27:04;13.52;;;6.43;;
75700;SDS011;64321;48.796;44.740;2022-11-20T20:32:07;15.65;;;8.10;;
75700;SDS011;64321;48.796;44.740;2022-11-20T20:37:09;21.70;;;9.02;;
75700;SDS011;64321;48.796;44.740;2022-11-20T20:42:12;16.27;;;8.52;;
75700;SDS011;64321;48.796;44.740;2022-11-20T20:47:14;20.83;;;9.93;;
75700;SDS011;64321;48.796;44.740;2022-11-20T20:52:17;21.50;;;9.38;;
75700;SDS011;64321;48.796;44.740;2022-11-20T20:57:20;19.98;;;9.32;;
75700;SDS011;64321;48.796;44.740;2022-11-20T21:02:23;23.60;;;9.68;;
75700;SDS011;64321;48.796;44.740;2022-11-20T21:07:26;21.42;;;10.75;;
75700;SDS011;64321;48.796;44.740;2022-11-20T21:12:29;20.30;;;8.98;;
75700;SDS011;64321;48.796;44.740;2022-11-20T21:17:31;20.35;;;8.93;;
75700;SDS011;64321;48.796;44.740;2022-11-20T21:22:34;21.02;;;9.38;;
75700;SDS011;64321;48.796;44.740;2022-11-20T21:27:37;16.23;;;7.20;;
75700;SDS011;64321;48.796;44.740;2022-11-20T21:32:39;19.02;;;8.52;;
75700;SDS011;64321;48.796;44.740;2022-11-20T21:37:42;18.35;;;9.15;;
75700;SDS011;64321;48.796;44.740;2022-11-20T21:42:44;20.23;;;9.15;;
75700;SDS011;64321;48.796;44.740;2022-11-20T21:47:47;20.92;;;9.27;;
75700;SDS011;64321;48.796;44.740;2022-11-20T21:52:51;24.88;;;9.98;;
75700;SDS011;64321;48.796;44.740;2022-11-20T21:57:54;22.70;;;10.38;;
75700;SDS011;64321;48.796;44.740;2022-11-20T22:02:56;20.52;;;9.60;;
75700;SDS011;64321;48.796;44.740;2022-11-20T22:07:59;23.13;;;10.38;;
75700;SDS011;64321;48.796;44.740;2022-11-20T22:13:02;20.95;;;10.15;;
75700;SDS011;64321;48.796;44.740;2022-11-20T22:18:23;19.33;;;9.77;;
75700;SDS011;64321;48.796;44.740;2022-11-20T22:23:25;20.48;;;9.73;;
75700;SDS011;64321;48.796;44.740;2022-11-20T22:28:28;19.33;;;9.15;;
75700;SDS011;64321;48.796;44.740;2022-11-20T22:33:31;19.17;;;9.35;;
75700;SDS011;64321;48.796;44.740;2022-11-20T22:38:34;23.67;;;9.80;;
75700;SDS011;64321;48.796;44.740;2022-11-20T22:43:40;22.17;;;8.93;;
75700;SDS011;64321;48.796;44.740;2022-11-20T22:48:53;20.70;;;9.07;;
75700;SDS011;64321;48.796;44.740;2022-11-20T22:53:58;20.00;;;8.75;;
75700;SDS011;64321;48.796;44.740;2022-11-20T22:59:01;26.30;;;12.05;;
75700;SDS011;64321;48.796;44.740;2022-11-20T23:04:05;24.38;;;10.82;;
75700;SDS011;64321;48.796;44.740;2022-11-20T23:09:10;22.27;;;9.70;;
75700;SDS011;64321;48.796;44.740;2022-11-20T23:14:14;21.67;;;10.10;;
75700;SDS011;64321;48.796;44.740;2022-11-20T23:19:17;23.45;;;10.55;;
75700;SDS011;64321;48.796;44.740;2022-11-20T23:24:20;22.58;;;10.10;;
75700;SDS011;64321;48.796;44.740;2022-11-20T23:29:22;21.35;;;9.80;;
75700;SDS011;64321;48.796;44.740;2022-11-20T23:34:25;21.25;;;10.07;;
75700;SDS011;64321;48.796;44.740;2022-11-20T23:39:28;23.88;;;10.00;;
75700;SDS011;64321;48.796;44.740;2022-11-20T23:44:30;22.92;;;11.00;;
75700;SDS011;64321;48.796;44.740;2022-11-20T23:49:33;18.33;;;9.10;;
75700;SDS011;64321;48.796;44.740;2022-11-20T23:54:35;19.38;;;8.73;;
75700;SDS011;64321;48.796;44.740;2022-11-20T23:59:38;14.05;;;6.57;;
